Time;durP1;ratioP1;P1;durP2;ratioP2;P2;SDS_P1;SDS_P2;PMS_P1;PMS_P2;Temp;Humidity;BMP_temperature;BMP_pressure;BME280_temperature;BME280_humidity;BME280_pressure;Samples;Min_cycle;Max_cycle;Signal;HPM_P1;HPM_P2
2023/05/20 00:00:06;;;;;;;5.88;3.70;;;12.90;99.90;;;;;;5133369;27;20534;-59
2023/05/20 00:02:32;;;;;;;7.95;3.60;;;12.90;99.90;;;;;;5129068;27;20043;-59
2023/05/20 00:04:58;;;;;;;8.18;3.28;;;12.80;99.90;;;;;;5123036;27;20046;-58
2023/05/20 00:07:23;;;;;;;4.13;2.90;;;12.80;99.90;;;;;;5119052;27;20043;-58
2023/05/20 00:09:49;;;;;;;8.38;3.83;;;12.80;99.90;;;;;;5112274;28;20404;-58
2023/05/20 00:12:15;;;;;;;6.70;3.45;;;12.80;99.90;;;;;;5129268;27;20077;-59
2023/05/20 00:14:40;;;;;;;6.22;2.83;;;12.80;99.90;;;;;;5117060;27;20039;-59
2023/05/20 00:17:06;;;;;;;9.82;4.40;;;12.80;99.90;;;;;;5121318;27;20062;-59
2023/05/20 00:19:31;;;;;;;8.23;4.20;;;12.80;99.90;;;;;;5131794;27;20043;-59
2023/05/20 00:21:57;;;;;;;11.95;4.15;;;12.80;99.90;;;;;;5147307;27;20046;-59
2023/05/20 00:24:24;;;;;;;9.02;3.60;;;12.80;99.90;;;;;;5115441;27;20057;-60
2023/05/20 00:26:50;;;;;;;9.00;4.35;;;12.70;99.90;;;;;;5112322;27;20047;-59
2023/05/20 00:29:16;;;;;;;7.68;3.38;;;12.70;99.90;;;;;;5111257;28;20071;-60
2023/05/20 00:31:41;;;;;;;7.13;3.55;;;12.70;99.90;;;;;;5112226;28;21584;-58
2023/05/20 00:34:08;;;;;;;8.88;4.18;;;12.70;99.90;;;;;;5113260;27;20036;-59
2023/05/20 00:36:34;;;;;;;10.55;4.32;;;12.60;99.90;;;;;;5110496;28;20042;-59
2023/05/20 00:39:00;;;;;;;10.45;3.60;;;12.60;99.90;;;;;;5111361;27;20036;-59
2023/05/20 00:41:26;;;;;;;6.18;3.80;;;12.60;99.90;;;;;;5112103;28;20093;-59
2023/05/20 00:43:55;;;;;;;5.90;3.38;;;12.60;99.90;;;;;;5112692;27;20056;-60
2023/05/20 00:46:25;;;;;;;10.15;4.60;;;12.60;99.90;;;;;;5110521;28;20046;-59
2023/05/20 00:48:51;;;;;;;11.07;3.85;;;12.60;99.90;;;;;;5109268;28;20071;-60
2023/05/20 00:51:18;;;;;;;9.13;4.47;;;12.60;99.90;;;;;;5110591;28;20043;-60
2023/05/20 00:53:44;;;;;;;7.30;3.72;;;12.60;99.90;;;;;;5112728;27;20044;-58
2023/05/20 00:56:11;;;;;;;8.18;3.95;;;12.60;99.90;;;;;;5112612;27;20046;-58
2023/05/20 00:58:37;;;;;;;;;;;12.60;99.90;;;;;;5126434;27;20046;-59
2023/05/20 01:01:02;;;;;;;6.03;3.13;;;12.60;99.90;;;;;;5131243;27;20386;-61
2023/05/20 01:03:29;;;;;;;5.97;3.38;;;12.60;99.90;;;;;;5118162;27;20361;-60
2023/05/20 01:05:54;;;;;;;6.57;3.53;;;12.60;99.90;;;;;;5113316;27;20039;-59
2023/05/20 01:08:22;;;;;;;7.90;3.90;;;12.60;99.90;;;;;;5122474;27;20046;-59
2023/05/20 01:10:57;;;;;;;4.85;3.60;;;12.60;99.90;;;;;;5127762;27;20028;-59
2023/05/20 01:13:29;;;;;;;8.15;3.72;;;12.60;99.90;;;;;;5120751;27;20031;-60
2023/05/20 01:15:55;;;;;;;9.18;5.18;;;12.60;99.90;;;;;;5123691;27;20035;-59
2023/05/20 01:18:24;;;;;;;15.00;5.30;;;12.60;99.90;;;;;;5111319;27;20110;-60
2023/05/20 01:20:54;;;;;;;5.05;2.80;;;12.60;99.90;;;;;;5111621;28;20054;-59
2023/05/20 01:23:19;;;;;;;5.35;3.30;;;12.60;99.90;;;;;;5122019;27;20060;-59
2023/05/20 01:25:45;;;;;;;11.40;4.18;;;12.60;99.90;;;;;;5129127;27;20500;-60
2023/05/20 01:28:16;;;;;;;7.75;2.92;;;12.60;99.90;;;;;;5120400;27;20038;-59
2023/05/20 01:30:47;;;;;;;11.80;3.38;;;12.60;99.90;;;;;;5123281;27;20047;-59
2023/05/20 01:33:15;;;;;;;12.25;3.40;;;12.70;99.90;;;;;;5120014;27;20084;-60
2023/05/20 01:35:41;;;;;;;6.80;3.75;;;12.60;99.90;;;;;;5131227;27;20031;-60
2023/05/20 01:38:07;;;;;;;8.48;3.97;;;12.60;99.90;;;;;;5128007;27;20087;-59
2023/05/20 01:40:33;;;;;;;11.02;3.53;;;12.70;99.90;;;;;;5131423;27;20118;-60
2023/05/20 01:43:00;;;;;;;;;;;12.60;99.90;;;;;;5126761;27;20122;-60
2023/05/20 01:45:26;;;;;;;10.65;3.40;;;12.60;99.90;;;;;;5111092;28;19915;-60
2023/05/20 01:47:51;;;;;;;5.50;3.20;;;12.60;99.90;;;;;;5113966;27;20380;-59
2023/05/20 01:50:17;;;;;;;7.53;3.25;;;12.60;99.90;;;;;;5131333;27;20193;-60
2023/05/20 01:52:43;;;;;;;9.32;3.40;;;12.60;99.90;;;;;;5129472;27;20071;-60
2023/05/20 01:55:08;;;;;;;7.28;3.05;;;12.60;99.90;;;;;;5111358;27;20059;-59
2023/05/20 01:57:34;;;;;;;8.77;3.30;;;12.60;99.90;;;;;;5110505;27;20096;-60
2023/05/20 02:00:00;;;;;;;8.00;2.67;;;12.60;99.90;;;;;;5130355;27;20403;-59
2023/05/20 02:02:26;;;;;;;7.18;3.58;;;12.60;99.90;;;;;;5111894;28;20074;-60
2023/05/20 02:04:53;;;;;;;9.38;3.60;;;12.60;99.90;;;;;;5130132;27;20072;-60
2023/05/20 02:07:18;;;;;;;8.23;3.28;;;12.60;99.90;;;;;;5135605;27;20065;-58
2023/05/20 02:09:44;;;;;;;6.93;3.47;;;12.60;99.90;;;;;;5117561;27;20035;-59
2023/05/20 02:12:16;;;;;;;7.18;3.80;;;12.60;99.90;;;;;;5115029;28;20039;-57
2023/05/20 02:14:46;;;;;;;9.05;3.25;;;12.60;99.90;;;;;;5129091;27;20038;-58
2023/05/20 02:17:15;;;;;;;10.63;3.92;;;12.60;99.90;;;;;;5132291;27;20031;-57
2023/05/20 02:19:40;;;;;;;6.70;3.88;;;12.60;99.90;;;;;;5128278;27;20514;-57
2023/05/20 02:22:06;;;;;;;6.70;3.70;;;12.50;99.90;;;;;;5130829;27;20039;-58
2023/05/20 02:24:32;;;;;;;8.45;3.42;;;12.60;99.90;;;;;;5126150;27;20450;-58
2023/05/20 02:26:58;;;;;;;3.75;2.58;;;12.50;99.90;;;;;;5129561;27;20043;-58
2023/05/20 02:29:24;;;;;;;8.95;2.70;;;12.50;99.90;;;;;;5126801;27;20071;-58
2023/05/20 02:31:50;;;;;;;8.63;3.10;;;12.50;99.90;;;;;;5129593;27;20530;-59
2023/05/20 02:34:20;;;;;;;6.80;3.85;;;12.60;99.90;;;;;;5119889;28;20071;-59
2023/05/20 02:36:45;;;;;;;10.02;3.00;;;12.50;99.90;;;;;;5110555;28;20454;-59
2023/05/20 02:39:11;;;;;;;6.38;3.38;;;12.50;99.90;;;;;;5122424;28;20027;-59
2023/05/20 02:41:37;;;;;;;6.90;3.10;;;12.50;99.90;;;;;;5130358;28;20059;-58
2023/05/20 02:44:03;;;;;;;10.30;2.63;;;12.50;99.90;;;;;;5127074;28;20035;-60
2023/05/20 02:46:28;;;;;;;4.63;2.78;;;12.50;99.90;;;;;;5117369;27;20031;-59
2023/05/20 02:48:54;;;;;;;7.80;3.05;;;12.50;99.90;;;;;;5125604;27;20117;-59
2023/05/20 02:51:20;;;;;;;11.82;3.38;;;12.50;99.90;;;;;;5130276;28;20115;-59
2023/05/20 02:53:46;;;;;;;8.52;3.22;;;12.50;99.90;;;;;;5120325;28;21450;-59
2023/05/20 02:56:12;;;;;;;7.82;3.20;;;12.50;99.90;;;;;;5109687;28;20489;-59
2023/05/20 02:58:38;;;;;;;3.33;2.15;;;12.50;99.90;;;;;;5108635;28;20059;-59
2023/05/20 03:01:04;;;;;;;13.80;3.25;;;12.40;99.90;;;;;;5130680;28;20042;-59
2023/05/20 03:03:30;;;;;;;5.88;2.88;;;12.40;99.90;;;;;;5130036;27;20522;-59
2023/05/20 03:05:55;;;;;;;8.75;2.90;;;12.40;99.90;;;;;;5109971;27;20046;-59
2023/05/20 03:08:22;;;;;;;11.07;3.13;;;12.40;99.90;;;;;;5108456;28;20123;-59
2023/05/20 03:10:47;;;;;;;;;;;12.40;99.90;;;;;;5128034;27;20476;-59
2023/05/20 03:13:14;;;;;;;4.43;2.58;;;12.30;99.90;;;;;;5132984;27;19930;-59
2023/05/20 03:15:40;;;;;;;;;;;12.30;99.90;;;;;;5117902;27;20107;-59
2023/05/20 03:18:07;;;;;;;5.72;3.42;;;12.30;99.90;;;;;;5112555;27;19999;-58
2023/05/20 03:20:35;;;;;;;7.88;3.22;;;12.30;99.90;;;;;;5127700;27;20067;-59
2023/05/20 03:23:01;;;;;;;3.85;2.42;;;12.20;99.90;;;;;;5133823;27;20543;-59
2023/05/20 03:25:27;;;;;;;;;;;12.20;99.90;;;;;;5130472;27;20509;-59
2023/05/20 03:27:53;;;;;;;4.85;2.58;;;12.20;99.90;;;;;;5133048;27;19919;-59
2023/05/20 03:30:19;;;;;;;3.95;2.70;;;12.20;99.90;;;;;;5132018;27;20575;-59
2023/05/20 03:32:45;;;;;;;3.70;2.78;;;12.10;99.90;;;;;;5134010;27;20039;-59
2023/05/20 03:35:10;;;;;;;5.30;2.40;;;12.10;99.90;;;;;;5124608;27;20092;-59
2023/05/20 03:37:36;;;;;;;13.55;2.67;;;12.10;99.90;;;;;;5111959;28;20028;-59
2023/05/20 03:40:05;;;;;;;6.53;2.35;;;12.00;99.90;;;;;;5120499;27;20039;-59
2023/05/20 03:42:33;;;;;;;5.28;2.28;;;12.00;99.90;;;;;;5113156;27;20047;-59
2023/05/20 03:44:59;;;;;;;2.75;2.03;;;12.00;99.90;;;;;;5118321;27;20410;-59
2023/05/20 03:47:26;;;;;;;9.75;2.88;;;12.00;99.90;;;;;;5133248;27;20043;-59
2023/05/20 03:49:51;;;;;;;4.00;1.50;;;12.00;99.90;;;;;;5120778;27;20411;-59
2023/05/20 03:52:17;;;;;;;7.53;2.33;;;11.90;99.90;;;;;;5112586;27;20035;-59
2023/05/20 03:54:43;;;;;;;6.22;2.13;;;11.90;99.90;;;;;;5114367;27;20035;-59
2023/05/20 03:57:11;;;;;;;3.83;2.28;;;11.90;99.90;;;;;;5133998;27;20054;-59
2023/05/20 03:59:37;;;;;;;3.70;2.03;;;11.90;99.90;;;;;;5131959;27;20084;-59
2023/05/20 04:02:04;;;;;;;5.10;2.55;;;11.90;99.90;;;;;;5131421;27;20403;-60
2023/05/20 04:04:30;;;;;;;5.57;2.08;;;11.80;99.90;;;;;;5132618;27;20039;-59
2023/05/20 04:06:55;;;;;;;3.97;2.35;;;11.80;99.90;;;;;;5113036;27;20050;-59
2023/05/20 04:09:22;;;;;;;4.47;1.92;;;11.90;99.90;;;;;;5111279;28;20036;-59
2023/05/20 04:11:48;;;;;;;;;;;11.80;99.90;;;;;;5130571;27;20031;-59
2023/05/20 04:14:14;;;;;;;4.53;2.05;;;11.80;99.90;;;;;;5128877;27;19915;-59
2023/05/20 04:16:40;;;;;;;2.22;1.88;;;11.80;99.90;;;;;;5126753;27;20080;-59
2023/05/20 04:19:06;;;;;;;5.63;1.88;;;11.80;99.90;;;;;;5131884;27;20039;-59
2023/05/20 04:21:31;;;;;;;4.45;1.63;;;11.80;99.90;;;;;;5126492;27;20060;-59
2023/05/20 04:23:57;;;;;;;3.45;1.48;;;11.80;99.90;;;;;;5132230;27;20035;-59
2023/05/20 04:26:23;;;;;;;5.97;1.40;;;11.80;99.90;;;;;;5120659;27;20046;-59
2023/05/20 04:28:49;;;;;;;9.23;2.65;;;11.80;99.90;;;;;;5111129;28;20031;-58
2023/05/20 04:31:15;;;;;;;2.97;2.05;;;11.80;99.90;;;;;;5123051;27;20035;-60
2023/05/20 04:33:41;;;;;;;6.95;1.58;;;11.90;99.90;;;;;;5132288;27;20043;-60
2023/05/20 04:36:10;;;;;;;3.25;1.40;;;11.80;99.90;;;;;;5123267;27;20114;-62
2023/05/20 04:38:37;;;;;;;2.42;1.63;;;11.90;99.90;;;;;;5111428;27;20074;-60
2023/05/20 04:41:03;;;;;;;;;;;11.90;99.90;;;;;;5113814;27;20039;-61
2023/05/20 04:43:30;;;;;;;2.58;1.50;;;11.90;99.90;;;;;;5111888;28;19927;-61
2023/05/20 04:45:56;;;;;;;4.95;1.63;;;11.90;99.90;;;;;;5119133;27;20062;-62
2023/05/20 04:48:22;;;;;;;2.05;1.20;;;11.90;99.90;;;;;;5110735;28;20036;-60
2023/05/20 04:50:49;;;;;;;2.95;1.10;;;12.00;99.90;;;;;;5119938;27;20031;-58
2023/05/20 04:53:17;;;;;;;3.60;1.30;;;12.10;99.90;;;;;;5137971;27;20039;-59
2023/05/20 04:55:45;;;;;;;3.33;1.25;;;12.10;99.90;;;;;;5129148;27;20054;-58
2023/05/20 04:58:16;;;;;;;4.72;1.33;;;12.10;99.90;;;;;;5110821;28;20031;-58
2023/05/20 05:00:43;;;;;;;5.22;1.40;;;12.10;99.90;;;;;;5100665;27;20061;-57
2023/05/20 05:03:11;;;;;;;1.80;1.40;;;12.20;99.90;;;;;;5122861;27;20035;-58
2023/05/20 05:05:38;;;;;;;9.68;1.50;;;12.30;99.90;;;;;;5129899;27;20042;-57
2023/05/20 05:08:04;;;;;;;2.78;1.08;;;12.30;99.90;;;;;;5127814;27;20047;-58
2023/05/20 05:10:30;;;;;;;4.15;1.70;;;12.40;99.90;;;;;;5130660;27;20065;-58
2023/05/20 05:12:56;;;;;;;2.22;1.02;;;12.50;99.90;;;;;;5112033;27;20511;-59
2023/05/20 05:15:22;;;;;;;1.65;0.70;;;12.50;99.90;;;;;;5111200;28;20059;-59
2023/05/20 05:17:47;;;;;;;4.45;1.33;;;12.60;99.90;;;;;;5127428;27;20039;-58
2023/05/20 05:20:13;;;;;;;5.20;1.30;;;12.70;99.90;;;;;;5147953;27;20057;-61
2023/05/20 05:22:40;;;;;;;5.50;1.00;;;12.80;99.90;;;;;;5116745;27;20042;-60
2023/05/20 05:25:07;;;;;;;5.55;1.02;;;12.90;99.90;;;;;;5111236;28;20039;-58
2023/05/20 05:27:34;;;;;;;5.57;1.10;;;13.00;99.90;;;;;;5124347;27;20268;-59
2023/05/20 05:29:59;;;;;;;2.75;0.77;;;13.00;99.90;;;;;;5131374;27;20046;-60
2023/05/20 05:32:25;;;;;;;6.70;0.88;;;13.10;99.90;;;;;;5129391;27;20764;-59
2023/05/20 05:34:51;;;;;;;3.88;1.63;;;13.10;99.90;;;;;;5112598;27;20070;-59
2023/05/20 05:37:16;;;;;;;5.13;0.93;;;13.20;99.90;;;;;;5120094;27;20031;-59
2023/05/20 05:39:42;;;;;;;4.45;1.10;;;13.20;99.90;;;;;;5109979;28;20039;-59
2023/05/20 05:42:07;;;;;;;8.48;1.40;;;13.30;99.90;;;;;;5120406;27;20077;-58
2023/05/20 05:44:33;;;;;;;39.05;2.60;;;13.40;99.90;;;;;;5131140;27;20074;-59
2023/05/20 05:46:59;;;;;;;7.85;1.27;;;13.40;99.90;;;;;;5123534;27;20071;-58
2023/05/20 05:49:24;;;;;;;3.03;0.88;;;13.50;99.90;;;;;;5108692;28;20051;-58
2023/05/20 05:51:50;;;;;;;2.92;0.50;;;13.50;99.90;;;;;;5117236;27;20084;-58
2023/05/20 05:54:16;;;;;;;3.25;0.80;;;13.60;99.90;;;;;;5130785;27;20058;-59
2023/05/20 05:56:42;;;;;;;2.28;0.98;;;13.70;99.90;;;;;;5127002;27;20039;-59
2023/05/20 05:59:07;;;;;;;5.70;1.10;;;13.80;99.90;;;;;;5130066;27;20445;-58
2023/05/20 06:01:33;;;;;;;1.50;1.00;;;13.90;99.90;;;;;;5127846;27;20046;-59
2023/05/20 06:03:59;;;;;;;3.13;0.63;;;13.90;99.90;;;;;;5127843;27;20039;-59
2023/05/20 06:06:25;;;;;;;4.13;0.68;;;14.00;99.90;;;;;;5116524;27;20062;-59
2023/05/20 06:08:51;;;;;;;4.05;1.10;;;14.00;99.90;;;;;;5126690;27;20110;-59
2023/05/20 06:11:16;;;;;;;5.80;0.80;;;14.10;99.90;;;;;;5130355;27;20625;-59
2023/05/20 06:13:42;;;;;;;7.80;0.70;;;14.10;99.80;;;;;;5121525;27;20039;-59
2023/05/20 06:16:08;;;;;;;5.82;0.88;;;14.10;99.60;;;;;;5129976;27;20326;-58
2023/05/20 06:18:33;;;;;;;3.58;0.80;;;14.20;99.40;;;;;;5128353;27;20118;-59
2023/05/20 06:20:59;;;;;;;3.10;0.70;;;14.30;99.60;;;;;;5130694;27;20466;-59
2023/05/20 06:23:25;;;;;;;1.45;0.80;;;14.40;99.50;;;;;;5123679;27;20038;-59
2023/05/20 06:25:50;;;;;;;;;;;14.50;99.50;;;;;;5110688;28;20042;-59
2023/05/20 06:28:16;;;;;;;3.05;0.60;;;14.60;99.40;;;;;;5112944;27;20307;-59
2023/05/20 06:30:42;;;;;;;3.58;1.27;;;14.60;98.90;;;;;;5109426;28;20047;-59
2023/05/20 06:33:08;;;;;;;4.53;1.10;;;14.70;98.90;;;;;;5116158;28;20039;-59
2023/05/20 06:35:33;;;;;;;9.85;1.35;;;14.80;98.70;;;;;;5122796;27;20038;-59
2023/05/20 06:38:02;;;;;;;2.33;0.80;;;14.80;98.60;;;;;;5120027;27;20498;-59
2023/05/20 06:40:28;;;;;;;1.67;0.68;;;14.90;98.40;;;;;;5129474;28;20070;-59
2023/05/20 06:42:54;;;;;;;2.67;0.60;;;15.00;98.30;;;;;;5108074;28;20042;-59
2023/05/20 06:45:20;;;;;;;2.08;0.82;;;15.00;98.20;;;;;;5129607;28;20043;-59
2023/05/20 06:47:47;;;;;;;2.95;0.68;;;15.20;98.40;;;;;;5124835;27;20042;-58
2023/05/20 06:50:13;;;;;;;1.73;0.63;;;15.20;97.90;;;;;;5128366;27;20039;-58
2023/05/20 06:52:39;;;;;;;2.95;1.05;;;15.30;97.70;;;;;;5129512;27;20123;-59
2023/05/20 06:55:05;;;;;;;5.30;0.98;;;15.30;97.50;;;;;;5133891;27;20413;-60
2023/05/20 06:57:31;;;;;;;;;;;15.40;97.70;;;;;;5131086;27;20039;-60
2023/05/20 06:59:56;;;;;;;3.00;0.90;;;15.40;97.30;;;;;;5132625;27;20112;-60
2023/05/20 07:02:22;;;;;;;2.55;0.80;;;15.40;97.40;;;;;;5131962;27;20477;-60
2023/05/20 07:04:48;;;;;;;5.97;1.80;;;15.50;97.40;;;;;;5130637;27;20037;-60
2023/05/20 07:07:14;;;;;;;5.45;1.55;;;15.60;97.70;;;;;;5133709;27;20102;-60
2023/05/20 07:09:40;;;;;;;4.18;0.90;;;15.70;97.50;;;;;;5129278;27;20060;-61
2023/05/20 07:12:06;;;;;;;0.98;0.80;;;15.80;97.20;;;;;;5133167;27;20422;-60
2023/05/20 07:14:31;;;;;;;5.35;1.30;;;15.80;97.20;;;;;;5130335;27;20559;-60
2023/05/20 07:16:57;;;;;;;2.50;0.93;;;15.90;97.20;;;;;;5133991;27;20122;-60
2023/05/20 07:19:22;;;;;;;2.97;1.23;;;16.00;97.10;;;;;;5132427;27;20100;-60
2023/05/20 07:21:48;;;;;;;3.25;1.17;;;16.10;97.20;;;;;;5134080;27;20433;-61
2023/05/20 07:24:17;;;;;;;5.22;0.73;;;16.20;97.00;;;;;;5131142;27;20039;-60
2023/05/20 07:26:43;;;;;;;2.08;1.50;;;16.30;97.00;;;;;;5133818;27;20057;-60
2023/05/20 07:29:09;;;;;;;4.82;1.13;;;16.40;97.10;;;;;;5128797;27;20043;-59
2023/05/20 07:31:34;;;;;;;8.55;1.42;;;16.50;97.00;;;;;;5139669;27;20111;-59
2023/05/20 07:34:00;;;;;;;2.05;1.20;;;16.60;97.10;;;;;;5133195;27;20091;-59
2023/05/20 07:36:29;;;;;;;1.67;1.00;;;16.70;97.00;;;;;;5134248;27;20040;-60
2023/05/20 07:38:55;;;;;;;6.20;1.40;;;16.80;96.80;;;;;;5126186;27;20095;-60
2023/05/20 07:41:21;;;;;;;4.05;0.82;;;16.90;96.80;;;;;;5120724;27;20491;-60
2023/05/20 07:43:46;;;;;;;;;;;16.90;97.00;;;;;;5126669;27;20345;-60
2023/05/20 07:46:12;;;;;;;2.03;1.08;;;16.90;96.20;;;;;;5127339;27;20055;-60
2023/05/20 07:48:38;;;;;;;1.92;1.23;;;17.00;96.40;;;;;;5127589;27;20653;-59
2023/05/20 07:51:03;;;;;;;3.25;0.85;;;17.10;96.10;;;;;;5125166;27;20509;-60
2023/05/20 07:53:29;;;;;;;2.65;1.20;;;17.10;96.20;;;;;;5130243;27;20130;-59
2023/05/20 07:55:55;;;;;;;3.20;1.15;;;17.20;96.40;;;;;;5126958;27;20036;-59
2023/05/20 07:58:21;;;;;;;5.85;1.60;;;17.30;96.10;;;;;;5130556;27;20038;-59
2023/05/20 08:00:47;;;;;;;5.47;1.85;;;17.40;95.90;;;;;;5120967;27;20051;-60
2023/05/20 08:03:13;;;;;;;3.53;1.48;;;17.40;96.20;;;;;;5133343;27;20043;-60
2023/05/20 08:05:40;;;;;;;;;;;17.60;96.00;;;;;;5132401;27;20027;-60
2023/05/20 08:08:05;;;;;;;4.65;1.42;;;17.70;95.80;;;;;;5132106;27;20348;-60
2023/05/20 08:10:31;;;;;;;3.17;1.73;;;17.70;95.60;;;;;;5132630;27;20118;-60
2023/05/20 08:12:57;;;;;;;3.50;1.10;;;17.90;96.00;;;;;;5132499;27;20567;-59
2023/05/20 08:15:22;;;;;;;2.33;0.90;;;17.90;95.70;;;;;;5123980;27;20057;-60
2023/05/20 08:17:48;;;;;;;3.50;1.20;;;18.00;95.40;;;;;;5111793;28;20067;-60
2023/05/20 08:20:13;;;;;;;1.83;0.90;;;18.10;95.00;;;;;;5128905;27;20035;-60
2023/05/20 08:22:39;;;;;;;4.38;1.15;;;18.10;94.60;;;;;;5133062;27;20096;-60
2023/05/20 08:25:07;;;;;;;3.97;1.15;;;18.10;94.60;;;;;;5128560;27;20039;-60
2023/05/20 08:27:33;;;;;;;5.20;1.30;;;18.20;94.90;;;;;;5131981;27;20395;-60
2023/05/20 08:29:59;;;;;;;4.63;1.17;;;18.30;95.10;;;;;;5118530;27;20038;-60
2023/05/20 08:32:24;;;;;;;1.80;1.08;;;18.40;94.80;;;;;;5114191;27;20039;-60
2023/05/20 08:34:50;;;;;;;1.58;1.17;;;18.50;94.40;;;;;;5114794;27;20036;-60
2023/05/20 08:37:15;;;;;;;3.35;1.27;;;18.50;94.10;;;;;;5112359;28;20040;-60
2023/05/20 08:39:41;;;;;;;2.58;1.63;;;18.60;94.10;;;;;;5119296;27;20035;-63
2023/05/20 08:42:10;;;;;;;2.03;1.00;;;18.60;94.00;;;;;;5122997;27;20069;-60
2023/05/20 08:44:36;;;;;;;3.88;1.20;;;18.70;94.00;;;;;;5118318;27;20035;-59
2023/05/20 08:47:03;;;;;;;4.15;1.08;;;18.70;93.60;;;;;;5132006;27;20035;-60
2023/05/20 08:49:31;;;;;;;3.42;1.35;;;18.80;93.50;;;;;;5123256;27;20031;-60
2023/05/20 08:51:58;;;;;;;5.15;1.30;;;18.90;93.80;;;;;;5111473;28;20050;-60
2023/05/20 08:54:26;;;;;;;7.00;0.90;;;19.00;93.20;;;;;;5115056;27;20046;-61
2023/05/20 08:56:52;;;;;;;5.38;1.67;;;19.10;92.50;;;;;;5132332;27;20035;-60
2023/05/20 08:59:18;;;;;;;34.45;2.33;;;19.10;92.50;;;;;;5127935;27;20070;-60
2023/05/20 09:01:44;;;;;;;3.45;1.17;;;19.10;92.30;;;;;;5111896;28;20551;-60
2023/05/20 09:04:10;;;;;;;5.72;1.17;;;19.10;92.30;;;;;;5111505;27;20032;-60
2023/05/20 09:06:45;;;;;;;16.00;2.13;;;19.10;91.80;;;;;;5117552;27;20027;-61
2023/05/20 09:09:14;;;;;;;198.27;11.13;;;19.10;92.10;;;;;;5129457;27;20105;-60
2023/05/20 09:11:41;;;;;;;6.95;0.93;;;19.10;91.80;;;;;;5126343;27;20342;-61
2023/05/20 09:14:07;;;;;;;7.53;1.40;;;19.00;91.70;;;;;;5119365;27;20054;-60
2023/05/20 09:16:33;;;;;;;;;;;18.90;91.80;;;;;;5113505;27;20404;-63
2023/05/20 09:18:58;;;;;;;7.07;1.10;;;18.80;91.10;;;;;;5128746;27;19915;-62
2023/05/20 09:21:26;;;;;;;5.82;1.45;;;18.70;91.50;;;;;;5146540;27;20579;-61
2023/05/20 09:23:53;;;;;;;4.35;1.40;;;18.80;91.10;;;;;;5132352;27;20034;-62
2023/05/20 09:26:18;;;;;;;6.22;1.02;;;18.80;90.90;;;;;;5129991;27;20364;-62
2023/05/20 09:28:45;;;;;;;7.13;1.50;;;18.80;90.70;;;;;;5117750;27;20035;-61
2023/05/20 09:31:12;;;;;;;;;;;18.70;90.70;;;;;;5125991;27;20036;-61
2023/05/20 09:33:38;;;;;;;5.78;1.00;;;18.70;91.50;;;;;;5131177;27;19920;-62
2023/05/20 09:36:07;;;;;;;2.90;0.63;;;18.80;91.10;;;;;;5116267;27;20053;-62
2023/05/20 09:38:38;;;;;;;2.42;1.08;;;18.90;91.10;;;;;;5110911;28;20031;-62
2023/05/20 09:41:10;;;;;;;4.65;0.95;;;19.10;91.00;;;;;;5123528;27;20035;-61
2023/05/20 09:43:37;;;;;;;8.18;1.02;;;19.20;90.70;;;;;;5130559;27;20717;-59
2023/05/20 09:46:04;;;;;;;16.50;1.63;;;19.30;90.70;;;;;;5121284;27;20035;-58
2023/05/20 09:48:30;;;;;;;4.18;0.93;;;19.40;90.70;;;;;;5109195;28;20496;-60
2023/05/20 09:50:56;;;;;;;8.38;1.13;;;19.50;90.70;;;;;;5113047;27;20035;-59
2023/05/20 09:53:28;;;;;;;9.52;1.00;;;19.70;90.80;;;;;;5110633;28;20049;-56
2023/05/20 09:55:54;;;;;;;1.95;0.98;;;19.90;90.60;;;;;;5099637;27;20518;-57
2023/05/20 09:58:22;;;;;;;6.47;0.80;;;20.00;90.80;;;;;;5114159;27;20399;-58
2023/05/20 10:00:48;;;;;;;11.02;1.23;;;20.20;89.90;;;;;;5115635;27;20042;-59
2023/05/20 10:03:13;;;;;;;3.47;0.70;;;20.30;88.90;;;;;;5130139;27;20047;-59
2023/05/20 10:05:55;;;;;;;;;;;20.30;87.00;;;;;;5130252;27;20042;-57
2023/05/20 10:08:48;;;;;;;4.53;0.73;;;20.40;85.10;;;;;;5117963;27;20006;-58
2023/05/20 10:11:25;;;;;;;6.93;0.57;;;20.50;86.10;;;;;;5112987;27;20042;-57
2023/05/20 10:14:10;;;;;;;8.48;1.48;;;20.60;85.10;;;;;;5108769;28;20036;-58
2023/05/20 10:17:06;;;;;;;27.55;2.40;;;20.80;84.60;;;;;;5119215;27;20088;-57
2023/05/20 10:19:33;;;;;;;10.00;0.90;;;21.00;83.60;;;;;;5121788;27;20445;-55
2023/05/20 10:22:04;;;;;;;9.13;1.00;;;21.00;83.50;;;;;;5129903;27;20039;-58
2023/05/20 10:24:34;;;;;;;4.25;0.45;;;20.80;81.30;;;;;;5120448;27;20027;-59
2023/05/20 10:27:02;;;;;;;5.07;0.52;;;20.60;81.10;;;;;;5128858;27;20136;-57
2023/05/20 10:29:28;;;;;;;5.28;1.08;;;20.40;80.40;;;;;;5129026;27;20416;-55
2023/05/20 10:31:54;;;;;;;211.68;20.52;;;20.30;80.10;;;;;;5129294;27;20579;-56
2023/05/20 10:34:22;;;;;;;10.15;0.90;;;20.30;80.70;;;;;;5124613;27;20114;-58
2023/05/20 10:36:53;;;;;;;3.03;0.60;;;20.30;81.20;;;;;;5130189;28;20114;-58
2023/05/20 10:39:28;;;;;;;9.80;1.50;;;20.30;79.60;;;;;;5114767;27;20445;-58
2023/05/20 10:42:07;;;;;;;8.85;0.85;;;20.40;80.30;;;;;;5110262;28;20097;-55
2023/05/20 10:44:41;;;;;;;2.15;0.60;;;20.50;81.00;;;;;;5110482;28;20104;-59
2023/05/20 10:47:07;;;;;;;46.05;3.03;;;20.60;79.80;;;;;;5110776;28;20042;-58
2023/05/20 10:49:34;;;;;;;6.17;0.87;;;20.70;80.60;;;;;;5110233;28;20035;-56
2023/05/20 10:52:00;;;;;;;7.60;1.08;;;20.70;78.40;;;;;;5110130;28;20078;-56
2023/05/20 10:54:26;;;;;;;5.60;0.80;;;20.70;78.70;;;;;;5120463;28;20040;-56
2023/05/20 10:56:52;;;;;;;;;;;20.80;80.10;;;;;;5109629;28;20046;-56
2023/05/20 10:59:20;;;;;;;6.53;0.70;;;20.80;78.60;;;;;;5122313;27;19919;-58
2023/05/20 11:01:46;;;;;;;38.90;3.45;;;20.70;79.30;;;;;;5130030;27;20373;-59
2023/05/20 11:04:12;;;;;;;;;;;20.80;80.40;;;;;;5129924;27;20043;-59
2023/05/20 11:06:38;;;;;;;1.90;0.55;;;20.80;79.50;;;;;;5129107;27;19919;-57
2023/05/20 11:09:05;;;;;;;;;;;20.80;77.90;;;;;;5116378;27;20100;-57
2023/05/20 11:11:31;;;;;;;3.15;0.57;;;20.90;78.60;;;;;;5109761;28;19924;-57
2023/05/20 11:13:56;;;;;;;;;;;20.80;79.20;;;;;;5120187;28;20369;-53
2023/05/20 11:16:22;;;;;;;5.72;0.75;;;20.90;77.80;;;;;;5128854;28;20299;-57
2023/05/20 11:18:49;;;;;;;;;;;21.00;78.40;;;;;;5119563;27;20035;-57
2023/05/20 11:21:14;;;;;;;86.97;7.40;;;21.00;77.40;;;;;;5130309;27;19916;-57
2023/05/20 11:23:40;;;;;;;;;;;21.10;78.00;;;;;;5118617;28;20096;-56
2023/05/20 11:26:06;;;;;;;1.98;0.73;;;21.10;76.10;;;;;;5129914;27;19923;-59
2023/05/20 11:28:34;;;;;;;1.85;0.60;;;21.00;77.00;;;;;;5121367;27;20496;-56
2023/05/20 11:31:00;;;;;;;5.95;0.98;;;20.90;76.20;;;;;;5125281;28;20085;-57
2023/05/20 11:33:28;;;;;;;;;;;20.80;77.10;;;;;;5112298;27;20445;-57
2023/05/20 11:35:55;;;;;;;7.05;1.00;;;20.80;77.80;;;;;;5133259;27;19919;-53
2023/05/20 11:38:21;;;;;;;5.20;0.80;;;21.00;78.10;;;;;;5125178;27;20039;-56
2023/05/20 11:40:50;;;;;;;;;;;21.20;78.50;;;;;;5112422;28;20420;-57
2023/05/20 11:43:16;;;;;;;6.10;0.68;;;21.30;76.50;;;;;;5117782;27;20470;-57
2023/05/20 11:45:46;;;;;;;;;;;21.40;77.10;;;;;;5128972;27;20046;-56
2023/05/20 11:48:14;;;;;;;2.55;0.50;;;21.50;75.80;;;;;;5115970;27;19932;-57
2023/05/20 11:50:45;;;;;;;0.85;0.55;;;21.40;75.90;;;;;;5133735;27;20035;-57
2023/05/20 11:53:19;;;;;;;3.03;0.43;;;21.40;76.90;;;;;;5130878;27;20028;-57
2023/05/20 11:55:50;;;;;;;6.82;0.50;;;21.40;75.70;;;;;;5133057;27;20035;-57
2023/05/20 11:58:18;;;;;;;3.58;0.73;;;21.40;75.90;;;;;;5126401;27;20165;-56
2023/05/20 12:00:44;;;;;;;3.17;0.60;;;21.50;75.40;;;;;;5112838;28;20040;-57
2023/05/20 12:03:10;;;;;;;;;;;21.60;75.00;;;;;;5114098;27;20443;-57
2023/05/20 12:05:36;;;;;;;2.72;0.60;;;21.50;74.20;;;;;;5112809;28;20272;-57
2023/05/20 12:08:02;;;;;;;;;;;21.40;74.40;;;;;;5112832;27;20045;-56
2023/05/20 12:10:28;;;;;;;17.15;1.77;;;21.40;74.80;;;;;;5133090;27;19923;-57
2023/05/20 12:12:54;;;;;;;;;;;21.50;74.60;;;;;;5133677;27;20125;-55
2023/05/20 12:15:19;;;;;;;8.55;0.95;;;21.50;72.90;;;;;;5132643;27;19919;-56
2023/05/20 12:17:47;;;;;;;;;;;21.50;73.00;;;;;;5132617;27;20047;-57
2023/05/20 12:20:14;;;;;;;;;;;21.50;72.80;;;;;;5132573;27;20434;-57
2023/05/20 12:22:40;;;;;;;;;;;21.50;73.40;;;;;;5133165;27;19919;-57
2023/05/20 12:25:06;;;;;;;6.97;0.57;;;21.60;73.10;;;;;;5132898;27;20406;-55
2023/05/20 12:27:32;;;;;;;;;;;21.60;74.00;;;;;;5132734;27;20043;-57
2023/05/20 12:29:58;;;;;;;5.82;0.73;;;21.60;72.90;;;;;;5133100;27;20307;-57
2023/05/20 12:32:23;;;;;;;;;;;21.60;73.20;;;;;;5133524;27;20028;-55
2023/05/20 12:34:49;;;;;;;4.15;0.60;;;21.60;73.10;;;;;;5132070;27;20355;-56
2023/05/20 12:37:15;;;;;;;;;;;21.30;72.70;;;;;;5132896;27;20475;-56
2023/05/20 12:39:40;;;;;;;1.10;0.52;;;21.30;73.00;;;;;;5133767;27;19915;-56
2023/05/20 12:42:06;;;;;;;;;;;21.40;74.70;;;;;;5139929;27;20082;-54
2023/05/20 12:44:31;;;;;;;1.73;0.60;;;21.60;75.50;;;;;;5133317;27;19922;-55
2023/05/20 12:46:57;;;;;;;;;;;21.80;73.90;;;;;;5131564;27;20048;-55
2023/05/20 12:49:22;;;;;;;1.38;0.40;;;21.90;74.60;;;;;;5131147;27;20283;-56
2023/05/20 12:51:48;;;;;;;;;;;22.00;73.90;;;;;;5132357;27;20066;-54